Time,TemperatureF,DewpointF,PressureIn,WindDirection,WindDirectionDegrees,WindSpeedMPH,WindSpeedGustMPH,Humidity,HourlyPrecipIn,Conditions,Clouds,dailyrainin,SolarRadiationWatts/m^2,SoftwareType,DateUTC
2013-03-06 00:08:00,58.6,-99.9,19.98,NW,304,2.0,2.0,255,0.00,,,0.00,0,Wunderground v.1.15,2013-03-06 05:08:00,
2013-03-06 00:18:00,58.4,-99.9,19.99,WNW,297,4.0,4.0,255,0.00,,,0.00,0,Wunderground v.1.15,2013-03-06 05:18:00,
2013-03-06 00:28:00,58.3,-99.9,19.98,West,272,5.0,5.0,255,0.00,,,0.00,0,Wunderground v.1.15,2013-03-06 05:28:00,
2013-03-06 00:38:00,58.1,-99.9,19.99,West,271,4.0,4.0,255,0.00,,,0.00,0,Wunderground v.1.15,2013-03-06 05:38:00,
2013-03-06 00:48:00,57.9,-99.9,19.99,West,277,6.0,6.0,255,0.00,,,0.00,0,Wunderground v.1.15,2013-03-06 05:48:00,
2013-03-06 00:58:00,58.0,-99.9,19.99,West,273,4.0,4.0,255,0.00,,,0.00,0,Wunderground v.1.15,2013-03-06 05:58:00,
2013-03-06 01:08:00,58.0,-99.9,19.99,WNW,289,8.0,8.0,255,0.00,,,0.00,0,Wunderground v.1.15,2013-03-06 06:08:00,
2013-03-06 01:18:00,57.6,-99.9,19.99,West,277,2.0,2.0,255,0.00,,,0.00,0,Wunderground v.1.15,2013-03-06 06:18:00,
2013-03-06 01:28:00,57.7,-99.9,19.99,NW,313,3.0,3.0,255,0.00,,,0.00,0,Wunderground v.1.15,2013-03-06 06:28:00,
2013-03-06 01:38:00,57.4,-99.9,19.98,NW,315,7.0,7.0,255,0.00,,,0.00,0,Wunderground v.1.15,2013-03-06 06:38:00,
2013-03-06 01:47:00,57.3,-99.9,19.99,West,277,4.0,4.0,255,0.00,,,0.00,0,Wunderground v.1.15,2013-03-06 06:47:00,
2013-03-06 01:57:00,57.1,-99.9,19.98,NW,319,5.0,5.0,255,0.00,,,0.00,0,Wunderground v.1.15,2013-03-06 06:57:00,
2013-03-06 02:07:00,56.9,-99.9,19.99,WNW,301,11.0,11.0,255,0.00,,,0.00,0,Wunderground v.1.15,2013-03-06 07:07:00,
2013-03-06 02:17:00,56.6,-99.9,19.99,NNW,328,4.0,4.0,255,0.00,,,0.00,0,Wunderground v.1.15,2013-03-06 07:17:00,
2013-03-06 02:29:00,55.0,-99.9,19.99,NW,316,9.0,9.0,255,0.00,,,0.00,0,Wunderground v.1.15,2013-03-06 07:29:00,
2013-03-06 02:38:00,53.8,-99.9,19.99,NNW,341,16.0,16.0,255,0.00,,,0.00,0,Wunderground v.1.15,2013-03-06 07:38:00,
2013-03-06 02:48:00,52.9,-99.9,19.99,NW,324,6.0,6.0,255,0.00,,,0.00,0,Wunderground v.1.15,2013-03-06 07:48:00,
2013-03-06 02:58:00,52.0,-99.9,19.98,NW,324,11.0,11.0,255,0.00,,,0.00,0,Wunderground v.1.15,2013-03-06 07:58:00,
2013-03-06 03:08:00,50.0,-99.9,19.99,NNW,340,14.0,14.0,255,0.00,,,0.00,0,Wunderground v.1.15,2013-03-06 08:08:00,
2013-03-06 03:18:00,49.1,-99.9,19.99,NNW,328,9.0,9.0,255,0.00,,,0.00,0,Wunderground v.1.15,2013-03-06 08:18:00,
2013-03-06 03:28:00,48.3,-99.9,19.99,NNW,330,10.0,10.0,255,0.00,,,0.00,0,Wunderground v.1.15,2013-03-06 08:28:00,
2013-03-06 03:38:00,46.9,-99.9,19.99,NNW,327,14.0,14.0,255,0.00,,,0.00,0,Wunderground v.1.15,2013-03-06 08:38:00,
2013-03-06 03:48:00,46.2,-99.9,19.99,NNW,341,23.0,23.0,255,0.00,,,0.00,0,Wunderground v.1.15,2013-03-06 08:48:00,
2013-03-06 03:58:00,45.8,-99.9,19.99,NNW,333,11.0,11.0,255,0.00,,,0.00,0,Wunderground v.1.15,2013-03-06 08:58:00,
2013-03-06 04:08:00,45.2,-99.9,19.99,NW,311,11.0,11.0,255,0.00,,,0.00,0,Wunderground v.1.15,2013-03-06 09:08:00,
2013-03-06 04:18:00,44.8,-99.9,19.99,NNW,331,22.0,22.0,255,0.00,,,0.00,0,Wunderground v.1.15,2013-03-06 09:18:00,
2013-03-06 04:28:00,44.6,-99.9,19.99,NW,316,8.0,8.0,255,0.00,,,0.00,0,Wunderground v.1.15,2013-03-06 09:28:00,
2013-03-06 04:38:00,44.3,-99.9,19.99,NW,325,17.0,17.0,255,0.00,,,0.00,0,Wunderground v.1.15,2013-03-06 09:38:00,
2013-03-06 04:48:00,44.0,-99.9,19.98,WNW,293,18.0,18.0,255,0.00,,,0.00,0,Wunderground v.1.15,2013-03-06 09:48:00,
2013-03-06 04:57:00,43.7,-99.9,19.99,NW,314,6.0,6.0,255,0.00,,,0.00,0,Wunderground v.1.15,2013-03-06 09:57:00,
2013-03-06 05:07:00,43.5,-99.9,19.99,WNW,303,8.0,8.0,255,0.00,,,0.00,0,Wunderground v.1.15,2013-03-06 10:07:00,
2013-03-06 05:17:00,43.3,-99.9,19.99,WNW,296,5.0,5.0,255,0.00,,,0.00,0,Wunderground v.1.15,2013-03-06 10:17:00,
2013-03-06 05:29:00,42.9,-99.9,19.99,NW,313,3.0,3.0,255,0.00,,,0.00,0,Wunderground v.1.15,2013-03-06 10:29:00,
2013-03-06 05:38:00,42.8,-99.9,19.99,NNW,343,13.0,13.0,255,0.00,,,0.00,0,Wunderground v.1.15,2013-03-06 10:38:00,
2013-03-06 05:48:00,42.5,-99.9,19.99,NW,307,9.0,9.0,255,0.00,,,0.00,0,Wunderground v.1.15,2013-03-06 10:48:00,
2013-03-06 05:58:00,42.5,-99.9,19.99,NNW,331,8.0,8.0,255,0.00,,,0.00,0,Wunderground v.1.15,2013-03-06 10:58:00,
2013-03-06 06:08:00,42.4,-99.9,19.99,NW,305,6.0,6.0,255,0.00,,,0.00,0,Wunderground v.1.15,2013-03-06 11:08:00,
2013-03-06 06:18:00,42.4,-99.9,19.99,North,349,4.0,4.0,255,0.00,,,0.00,0,Wunderground v.1.15,2013-03-06 11:18:00,
2013-03-06 06:28:00,42.4,-99.9,19.99,NW,325,9.0,9.0,255,0.00,,,0.00,0,Wunderground v.1.15,2013-03-06 11:28:00,
2013-03-06 06:38:00,42.3,-99.9,19.99,NW,318,8.0,8.0,255,0.00,,,0.00,0,Wunderground v.1.15,2013-03-06 11:38:00,
2013-03-06 06:48:00,42.0,-99.9,19.99,NW,314,8.0,8.0,255,0.00,,,0.00,0,Wunderground v.1.15,2013-03-06 11:48:00,
2013-03-06 06:58:00,42.2,-99.9,19.99,NNW,333,5.0,5.0,255,0.00,,,0.00,0,Wunderground v.1.15,2013-03-06 11:58:00,
2013-03-06 07:08:00,42.3,-99.9,19.98,NNW,336,2.0,2.0,255,0.00,,,0.00,0,Wunderground v.1.15,2013-03-06 12:08:00,
2013-03-06 07:18:00,42.5,-99.9,19.99,NW,309,6.0,6.0,255,0.00,,,0.00,0,Wunderground v.1.15,2013-03-06 12:18:00,
2013-03-06 07:28:00,42.6,-99.9,19.99,NW,304,13.0,13.0,255,0.00,,,0.00,0,Wunderground v.1.15,2013-03-06 12:28:00,
2013-03-06 07:38:00,42.9,-99.9,19.99,NW,326,7.0,7.0,255,0.00,,,0.00,0,Wunderground v.1.15,2013-03-06 12:38:00,
2013-03-06 07:47:00,43.3,-99.9,19.99,NNW,339,26.0,26.0,255,0.00,,,0.00,0,Wunderground v.1.15,2013-03-06 12:47:00,
2013-03-06 07:55:00,43.2,-99.9,19.99,WNW,298,9.0,26.0,255,0.00,,,0.00,0,Wunderground v.1.15,2013-03-06 12:55:00,
2013-03-06 08:05:00,43.4,-99.9,19.99,NNW,333,16.0,16.0,255,0.00,,,0.00,0,Wunderground v.1.15,2013-03-06 13:05:00,
2013-03-06 08:14:00,44.8,-99.9,19.99,NW,312,15.0,15.0,255,0.00,,,0.00,0,Wunderground v.1.15,2013-03-06 13:14:00,
2013-03-06 08:25:00,43.8,-99.9,19.99,NW,317,5.0,5.0,255,0.00,,,0.00,0,Wunderground v.1.15,2013-03-06 13:25:00,
2013-03-06 08:35:00,43.3,-99.9,19.99,WNW,293,12.0,12.0,255,0.00,,,0.00,0,Wunderground v.1.15,2013-03-06 13:35:00,
2013-03-06 08:45:00,43.0,-99.9,19.99,NW,313,7.0,7.0,255,0.00,,,0.00,0,Wunderground v.1.15,2013-03-06 13:45:00,
2013-03-06 08:54:00,43.0,-99.9,19.99,NNW,337,15.0,15.0,255,0.00,,,0.00,0,Wunderground v.1.15,2013-03-06 13:54:00,
2013-03-06 09:04:00,43.2,-99.9,19.98,NNW,340,22.0,22.0,255,0.00,,,0.00,0,Wunderground v.1.15,2013-03-06 14:04:00,
2013-03-06 09:14:00,43.6,-99.9,19.99,NNW,335,30.0,30.0,255,0.00,,,0.00,0,Wunderground v.1.15,2013-03-06 14:14:00,
2013-03-06 09:24:00,44.5,-99.9,19.99,NNW,327,6.0,6.0,255,0.00,,,0.00,0,Wunderground v.1.15,2013-03-06 14:24:00,
2013-03-06 09:34:00,45.7,-99.9,19.98,NW,315,11.0,11.0,255,0.00,,,0.00,0,Wunderground v.1.15,2013-03-06 14:34:00,
2013-03-06 09:44:00,45.3,-99.9,19.99,NNW,335,10.0,10.0,255,0.00,,,0.00,0,Wunderground v.1.15,2013-03-06 14:44:00,
2013-03-06 09:54:00,45.9,-99.9,19.98,NNW,328,14.0,14.0,255,0.00,,,0.00,0,Wunderground v.1.15,2013-03-06 14:54:00,
2013-03-06 10:04:00,45.9,-99.9,19.99,NW,320,8.0,8.0,255,0.00,,,0.00,0,Wunderground v.1.15,2013-03-06 15:04:00,
2013-03-06 10:14:00,46.2,-99.9,19.99,NNW,330,18.0,18.0,255,0.00,,,0.00,0,Wunderground v.1.15,2013-03-06 15:14:00,
2013-03-06 10:24:00,45.9,-99.9,19.99,NNW,342,11.0,11.0,255,0.00,,,0.00,0,Wunderground v.1.15,2013-03-06 15:24:00,
2013-03-06 10:34:00,45.3,-99.9,19.99,NNW,328,12.0,12.0,255,0.00,,,0.00,0,Wunderground v.1.15,2013-03-06 15:34:00,
2013-03-06 10:44:00,46.5,-99.9,19.99,NNW,332,8.0,8.0,255,0.00,,,0.00,0,Wunderground v.1.15,2013-03-06 15:44:00,
2013-03-06 10:54:00,46.5,-99.9,19.98,North,350,13.0,13.0,255,0.00,,,0.00,0,Wunderground v.1.15,2013-03-06 15:54:00,
2013-03-06 11:04:00,46.8,-99.9,19.98,NNW,328,11.0,11.0,255,0.00,,,0.00,0,Wunderground v.1.15,2013-03-06 16:04:00,
2013-03-06 11:14:00,46.9,-99.9,19.99,North,349,10.0,10.0,255,0.00,,,0.00,0,Wunderground v.1.15,2013-03-06 16:14:00,
2013-03-06 11:24:00,48.0,-99.9,19.99,NNW,343,5.0,5.0,255,0.00,,,0.00,0,Wunderground v.1.15,2013-03-06 16:24:00,
2013-03-06 11:34:00,48.8,-99.9,19.98,NNW,338,24.0,24.0,255,0.00,,,0.00,0,Wunderground v.1.15,2013-03-06 16:34:00,
2013-03-06 11:44:00,48.2,-99.9,19.99,NW,304,14.0,14.0,255,0.00,,,0.00,0,Wunderground v.1.15,2013-03-06 16:44:00,
2013-03-06 11:54:00,49.0,-99.9,19.99,North,353,12.0,12.0,255,0.00,,,0.00,0,Wunderground v.1.15,2013-03-06 16:54:00,
2013-03-06 12:04:00,49.4,-99.9,19.99,NNE,21,14.0,14.0,255,0.00,,,0.00,0,Wunderground v.1.15,2013-03-06 17:04:00,
2013-03-06 12:13:00,49.3,-99.9,19.98,North,352,17.0,17.0,255,0.00,,,0.00,0,Wunderground v.1.15,2013-03-06 17:13:00,
2013-03-06 12:23:00,49.8,-99.9,19.98,NNW,346,8.0,8.0,255,0.00,,,0.00,0,Wunderground v.1.15,2013-03-06 17:23:00,
2013-03-06 12:33:00,49.1,-99.9,19.98,NW,322,12.0,12.0,255,0.00,,,0.00,0,Wunderground v.1.15,2013-03-06 17:33:00,
2013-03-06 12:43:00,49.8,-99.9,19.99,NNW,342,21.0,21.0,255,0.00,,,0.00,0,Wunderground v.1.15,2013-03-06 17:43:00,
2013-03-06 12:53:00,50.3,-99.9,19.99,NNW,334,8.0,8.0,255,0.00,,,0.00,0,Wunderground v.1.15,2013-03-06 17:53:00,
2013-03-06 13:03:00,50.4,-99.9,19.99,NNW,347,21.0,21.0,255,0.00,,,0.00,0,Wunderground v.1.15,2013-03-06 18:03:00,
2013-03-06 13:13:00,50.8,-99.9,19.99,North,2,7.0,7.0,255,0.00,,,0.00,0,Wunderground v.1.15,2013-03-06 18:13:00,
2013-03-06 13:23:00,51.6,-99.9,19.99,NNW,343,15.0,15.0,255,0.00,,,0.00,0,Wunderground v.1.15,2013-03-06 18:23:00,
2013-03-06 13:33:00,50.9,-99.9,19.98,NNW,332,7.0,7.0,255,0.00,,,0.00,0,Wunderground v.1.15,2013-03-06 18:33:00,
2013-03-06 13:43:00,50.4,-99.9,19.99,NNW,342,6.0,6.0,255,0.00,,,0.00,0,Wunderground v.1.15,2013-03-06 18:43:00,
2013-03-06 13:53:00,51.3,-99.9,19.98,NNW,332,14.0,14.0,255,0.00,,,0.00,0,Wunderground v.1.15,2013-03-06 18:53:00,
2013-03-06 14:03:00,50.9,-99.9,19.98,NNW,331,12.0,12.0,255,0.00,,,0.00,0,Wunderground v.1.15,2013-03-06 19:03:00,
2013-03-06 14:13:00,51.2,-99.9,19.98,NW,317,16.0,16.0,255,0.00,,,0.00,0,Wunderground v.1.15,2013-03-06 19:13:00,
2013-03-06 14:23:00,51.7,-99.9,19.99,NNW,343,8.0,8.0,255,0.00,,,0.00,0,Wunderground v.1.15,2013-03-06 19:23:00,
2013-03-06 14:33:00,51.1,-99.9,19.98,North,354,7.0,7.0,255,0.00,,,0.00,0,Wunderground v.1.15,2013-03-06 19:33:00,
2013-03-06 14:43:00,51.8,-99.9,19.98,NNW,337,17.0,17.0,255,0.00,,,0.00,0,Wunderground v.1.15,2013-03-06 19:43:00,
2013-03-06 14:53:00,52.3,-99.9,19.98,NNW,329,9.0,9.0,255,0.00,,,0.00,0,Wunderground v.1.15,2013-03-06 19:53:00,
2013-03-06 15:02:00,51.0,-99.9,19.98,North,355,12.0,12.0,255,0.00,,,0.00,0,Wunderground v.1.15,2013-03-06 20:02:00,
2013-03-06 15:12:00,52.7,-99.9,19.98,NNW,338,3.0,3.0,255,0.00,,,0.00,0,Wunderground v.1.15,2013-03-06 20:12:00,
2013-03-06 15:22:00,52.2,-99.9,19.99,North,0,20.0,20.0,255,0.00,,,0.00,0,Wunderground v.1.15,2013-03-06 20:22:00,
2013-03-06 15:32:00,51.6,-99.9,19.99,NNW,345,12.0,12.0,255,0.00,,,0.00,0,Wunderground v.1.15,2013-03-06 20:32:00,
2013-03-06 15:42:00,52.1,-99.9,19.99,NNW,343,16.0,16.0,255,0.00,,,0.00,0,Wunderground v.1.15,2013-03-06 20:42:00,
2013-03-06 15:52:00,52.5,-99.9,19.99,NNW,330,14.0,14.0,255,0.00,,,0.00,0,Wunderground v.1.15,2013-03-06 20:52:00,
2013-03-06 16:02:00,51.8,-99.9,19.99,NNW,341,16.0,16.0,255,0.00,,,0.00,0,Wunderground v.1.15,2013-03-06 21:02:00,
2013-03-06 16:12:00,51.9,-99.9,19.99,North,350,13.0,13.0,255,0.00,,,0.00,0,Wunderground v.1.15,2013-03-06 21:12:00,
2013-03-06 16:22:00,52.4,-99.9,19.99,NNW,347,8.0,8.0,255,0.00,,,0.00,0,Wunderground v.1.15,2013-03-06 21:22:00,
2013-03-06 16:32:00,52.1,-99.9,19.99,NNW,348,15.0,15.0,255,0.00,,,0.00,0,Wunderground v.1.15,2013-03-06 21:32:00,
2013-03-06 16:42:00,52.7,-99.9,19.99,North,1,14.0,14.0,255,0.00,,,0.00,0,Wunderground v.1.15,2013-03-06 21:42:00,
2013-03-06 16:52:00,52.1,-99.9,19.98,North,349,10.0,10.0,255,0.00,,,0.00,0,Wunderground v.1.15,2013-03-06 21:52:00,
2013-03-06 17:02:00,52.2,-99.9,19.98,North,356,11.0,11.0,255,0.00,,,0.00,0,Wunderground v.1.15,2013-03-06 22:02:00,
2013-03-06 17:12:00,52.2,-99.9,19.99,North,355,16.0,16.0,255,0.00,,,0.00,0,Wunderground v.1.15,2013-03-06 22:12:00,
2013-03-06 17:22:00,52.2,-99.9,19.99,NNW,336,13.0,13.0,255,0.00,,,0.00,0,Wunderground v.1.15,2013-03-06 22:22:00,
2013-03-06 17:32:00,52.2,-99.9,19.99,NW,320,8.0,8.0,255,0.00,,,0.00,0,Wunderground v.1.15,2013-03-06 22:32:00,
2013-03-06 17:42:00,52.0,-99.9,19.98,NNW,330,12.0,12.0,255,0.00,,,0.00,0,Wunderground v.1.15,2013-03-06 22:42:00,
2013-03-06 17:52:00,51.8,-99.9,19.98,North,358,8.0,8.0,255,0.00,,,0.00,0,Wunderground v.1.15,2013-03-06 22:52:00,
2013-03-06 18:02:00,51.5,-99.9,19.99,NNW,346,8.0,8.0,255,0.00,,,0.00,0,Wunderground v.1.15,2013-03-06 23:02:00,
2013-03-06 18:12:00,51.1,-99.9,19.99,NW,323,7.0,7.0,255,0.00,,,0.00,0,Wunderground v.1.15,2013-03-06 23:12:00,
2013-03-06 18:22:00,51.0,-99.9,19.98,North,351,18.0,18.0,255,0.00,,,0.00,0,Wunderground v.1.15,2013-03-06 23:22:00,
2013-03-06 18:32:00,50.6,-99.9,19.99,NNW,346,3.0,3.0,255,0.00,,,0.00,0,Wunderground v.1.15,2013-03-06 23:32:00,
2013-03-06 18:41:00,50.2,-99.9,19.99,NNW,348,8.0,8.0,255,0.00,,,0.00,0,Wunderground v.1.15,2013-03-06 23:41:00,
2013-03-06 18:51:00,49.8,-99.9,19.99,NNW,344,15.0,15.0,255,0.00,,,0.00,0,Wunderground v.1.15,2013-03-06 23:51:00,
2013-03-06 19:01:00,49.7,-99.9,19.99,NNW,339,10.0,10.0,255,0.00,,,0.00,0,Wunderground v.1.15,2013-03-07 00:01:00,
2013-03-06 19:11:00,49.6,-99.9,19.98,North,359,2.0,2.0,255,0.00,,,0.00,0,Wunderground v.1.15,2013-03-07 00:11:00,
2013-03-06 19:21:00,49.8,-99.9,19.99,North,356,6.0,6.0,255,0.00,,,0.00,0,Wunderground v.1.15,2013-03-07 00:21:00,
2013-03-06 19:31:00,49.6,-99.9,19.99,North,350,5.0,5.0,255,0.00,,,0.00,0,Wunderground v.1.15,2013-03-07 00:31:00,
2013-03-06 19:41:00,49.2,-99.9,19.98,NNW,340,9.0,9.0,255,0.00,,,0.00,0,Wunderground v.1.15,2013-03-07 00:41:00,
2013-03-06 19:51:00,48.9,-99.9,19.99,North,353,9.0,9.0,255,0.00,,,0.00,0,Wunderground v.1.15,2013-03-07 00:51:00,
2013-03-06 20:01:00,48.7,-99.9,19.99,NNW,343,3.0,3.0,255,0.00,,,0.00,0,Wunderground v.1.15,2013-03-07 01:01:00,
2013-03-06 20:11:00,48.6,-99.9,19.99,NNW,334,5.0,5.0,255,0.00,,,0.00,0,Wunderground v.1.15,2013-03-07 01:11:00,
2013-03-06 20:21:00,48.4,-99.9,19.99,NNW,342,6.0,6.0,255,0.00,,,0.00,0,Wunderground v.1.15,2013-03-07 01:21:00,
2013-03-06 20:31:00,48.2,-99.9,19.99,North,358,2.0,2.0,255,0.00,,,0.00,0,Wunderground v.1.15,2013-03-07 01:31:00,
2013-03-06 20:41:00,48.5,-99.9,19.99,NNW,344,4.0,4.0,255,0.00,,,0.00,0,Wunderground v.1.15,2013-03-07 01:41:00,
2013-03-06 20:51:00,48.3,-99.9,19.99,North,11,6.0,6.0,255,0.00,,,0.00,0,Wunderground v.1.15,2013-03-07 01:51:00,
2013-03-06 21:01:00,48.1,-99.9,19.99,North,354,7.0,7.0,255,0.00,,,0.00,0,Wunderground v.1.15,2013-03-07 02:01:00,
2013-03-06 21:11:00,47.8,-99.9,19.99,North,11,5.0,5.0,255,0.00,,,0.00,0,Wunderground v.1.15,2013-03-07 02:11:00,
2013-03-06 21:21:00,47.6,-99.9,19.99,NNW,343,5.0,5.0,255,0.00,,,0.00,0,Wunderground v.1.15,2013-03-07 02:21:00,
2013-03-06 21:31:00,47.5,-99.9,19.99,North,0,8.0,8.0,255,0.00,,,0.00,0,Wunderground v.1.15,2013-03-07 02:31:00,
2013-03-06 21:41:00,47.4,-99.9,19.99,North,0,2.0,2.0,255,0.00,,,0.00,0,Wunderground v.1.15,2013-03-07 02:41:00,
2013-03-06 21:50:00,47.1,-99.9,19.98,NNW,347,5.0,5.0,255,0.00,,,0.00,0,Wunderground v.1.15,2013-03-07 02:50:00,
2013-03-06 22:00:00,46.7,-99.9,19.98,NNE,12,3.0,3.0,255,0.00,,,0.00,0,Wunderground v.1.15,2013-03-07 03:00:00,
2013-03-06 22:10:00,46.6,-99.9,19.99,North,0,6.0,6.0,255,0.00,,,0.00,0,Wunderground v.1.15,2013-03-07 03:10:00,
2013-03-06 22:20:00,46.3,-99.9,19.99,North,10,6.0,6.0,255,0.00,,,0.00,0,Wunderground v.1.15,2013-03-07 03:20:00,
2013-03-06 22:30:00,46.0,-99.9,19.98,North,0,2.0,2.0,255,0.00,,,0.00,0,Wunderground v.1.15,2013-03-07 03:30:00,
2013-03-06 22:40:00,46.0,-99.9,19.99,NNW,332,2.0,2.0,255,0.00,,,0.00,0,Wunderground v.1.15,2013-03-07 03:40:00,
2013-03-06 22:50:00,45.6,-99.9,19.99,North,359,6.0,6.0,255,0.00,,,0.00,0,Wunderground v.1.15,2013-03-07 03:50:00,
2013-03-06 23:00:00,45.3,-99.9,19.99,North,2,6.0,6.0,255,0.00,,,0.00,0,Wunderground v.1.15,2013-03-07 04:00:00,
2013-03-06 23:10:00,45.2,-99.9,19.98,North,356,6.0,6.0,255,0.00,,,0.00,0,Wunderground v.1.15,2013-03-07 04:10:00,
2013-03-06 23:20:00,45.0,-99.9,19.99,North,358,0.0,0.0,255,0.00,,,0.00,0,Wunderground v.1.15,2013-03-07 04:20:00,
2013-03-06 23:30:00,44.7,-99.9,19.98,North,358,2.0,2.0,255,0.00,,,0.00,0,Wunderground v.1.15,2013-03-07 04:30:00,
2013-03-06 23:40:00,44.6,-99.9,19.98,North,0,3.0,3.0,255,0.00,,,0.00,0,Wunderground v.1.15,2013-03-07 04:40:00,
2013-03-06 23:50:00,44.5,-99.9,19.99,North,8,4.0,4.0,255,0.00,,,0.00,0,Wunderground v.1.15,2013-03-07 04:50:00,
2013-03-06 23:59:00,44.3,-99.9,19.99,North,356,3.0,3.0,255,0.00,,,0.00,0,Wunderground v.1.15,2013-03-07 04:59:00,